sensor_id;sensor_type;location;lat;lon;timestamp;P1;durP1;ratioP1;P2;durP2;ratioP2
21593;SDS011;10959;51.328;7.322;2024-01-06T00:00:18;16.73;;;14.93;;
21593;SDS011;10959;51.328;7.322;2024-01-06T00:02:46;13.93;;;12.50;;
21593;SDS011;10959;51.328;7.322;2024-01-06T00:05:12;14.23;;;12.93;;
21593;SDS011;10959;51.328;7.322;2024-01-06T00:07:39;14.63;;;13.20;;
21593;SDS011;10959;51.328;7.322;2024-01-06T00:10:07;11.57;;;10.47;;
21593;SDS011;10959;51.328;7.322;2024-01-06T00:12:33;12.87;;;11.57;;
21593;SDS011;10959;51.328;7.322;2024-01-06T00:15:00;12.17;;;11.07;;
21593;SDS011;10959;51.328;7.322;2024-01-06T00:17:26;12.27;;;11.17;;
21593;SDS011;10959;51.328;7.322;2024-01-06T00:19:53;12.77;;;11.57;;
21593;SDS011;10959;51.328;7.322;2024-01-06T00:22:20;11.87;;;10.73;;
21593;SDS011;10959;51.328;7.322;2024-01-06T00:24:46;16.47;;;14.70;;
21593;SDS011;10959;51.328;7.322;2024-01-06T00:27:14;13.73;;;12.43;;
21593;SDS011;10959;51.328;7.322;2024-01-06T00:29:41;13.20;;;11.80;;
21593;SDS011;10959;51.328;7.322;2024-01-06T00:32:08;13.83;;;12.47;;
21593;SDS011;10959;51.328;7.322;2024-01-06T00:34:34;13.30;;;12.00;;
21593;SDS011;10959;51.328;7.322;2024-01-06T00:37:01;14.27;;;12.83;;
21593;SDS011;10959;51.328;7.322;2024-01-06T00:39:27;13.63;;;12.43;;
21593;SDS011;10959;51.328;7.322;2024-01-06T00:41:54;14.80;;;13.30;;
21593;SDS011;10959;51.328;7.322;2024-01-06T00:44:20;15.20;;;13.70;;
21593;SDS011;10959;51.328;7.322;2024-01-06T00:46:47;14.03;;;12.73;;
21593;SDS011;10959;51.328;7.322;2024-01-06T00:49:13;12.87;;;11.67;;
21593;SDS011;10959;51.328;7.322;2024-01-06T00:51:40;14.60;;;13.20;;
21593;SDS011;10959;51.328;7.322;2024-01-06T00:54:07;13.83;;;12.40;;
21593;SDS011;10959;51.328;7.322;2024-01-06T00:56:33;13.97;;;12.60;;
21593;SDS011;10959;51.328;7.322;2024-01-06T00:59:00;14.90;;;13.37;;
21593;SDS011;10959;51.328;7.322;2024-01-06T01:01:27;14.90;;;13.60;;
21593;SDS011;10959;51.328;7.322;2024-01-06T01:03:54;15.67;;;13.90;;
21593;SDS011;10959;51.328;7.322;2024-01-06T01:06:20;14.97;;;13.47;;
21593;SDS011;10959;51.328;7.322;2024-01-06T01:08:47;15.43;;;13.87;;
21593;SDS011;10959;51.328;7.322;2024-01-06T01:11:13;15.40;;;13.90;;
21593;SDS011;10959;51.328;7.322;2024-01-06T01:13:40;15.10;;;13.47;;
21593;SDS011;10959;51.328;7.322;2024-01-06T01:16:06;14.80;;;13.30;;
21593;SDS011;10959;51.328;7.322;2024-01-06T01:18:34;14.33;;;12.93;;
21593;SDS011;10959;51.328;7.322;2024-01-06T01:21:00;16.57;;;14.87;;
21593;SDS011;10959;51.328;7.322;2024-01-06T01:23:27;13.53;;;12.33;;
21593;SDS011;10959;51.328;7.322;2024-01-06T01:25:53;13.27;;;12.07;;
21593;SDS011;10959;51.328;7.322;2024-01-06T01:28:20;13.87;;;12.57;;
21593;SDS011;10959;51.328;7.322;2024-01-06T01:30:46;15.47;;;13.20;;
21593;SDS011;10959;51.328;7.322;2024-01-06T01:33:13;14.40;;;13.00;;
21593;SDS011;10959;51.328;7.322;2024-01-06T01:35:41;12.53;;;11.33;;
21593;SDS011;10959;51.328;7.322;2024-01-06T01:38:07;13.90;;;12.50;;
21593;SDS011;10959;51.328;7.322;2024-01-06T01:40:33;13.37;;;12.07;;
21593;SDS011;10959;51.328;7.322;2024-01-06T01:43:00;12.67;;;11.37;;
21593;SDS011;10959;51.328;7.322;2024-01-06T01:45:26;12.27;;;11.07;;
21593;SDS011;10959;51.328;7.322;2024-01-06T01:47:53;12.30;;;11.10;;
21593;SDS011;10959;51.328;7.322;2024-01-06T01:50:19;13.73;;;12.43;;
21593;SDS011;10959;51.328;7.322;2024-01-06T01:52:48;11.80;;;10.60;;
21593;SDS011;10959;51.328;7.322;2024-01-06T01:55:15;12.53;;;11.33;;
21593;SDS011;10959;51.328;7.322;2024-01-06T01:57:41;12.37;;;11.27;;
21593;SDS011;10959;51.328;7.322;2024-01-06T02:00:08;12.53;;;11.33;;
21593;SDS011;10959;51.328;7.322;2024-01-06T02:02:35;13.50;;;12.30;;
21593;SDS011;10959;51.328;7.322;2024-01-06T02:05:02;11.50;;;10.37;;
21593;SDS011;10959;51.328;7.322;2024-01-06T02:07:29;13.60;;;12.20;;
21593;SDS011;10959;51.328;7.322;2024-01-06T02:09:56;13.10;;;11.90;;
21593;SDS011;10959;51.328;7.322;2024-01-06T02:12:23;12.77;;;11.57;;
21593;SDS011;10959;51.328;7.322;2024-01-06T02:14:49;11.47;;;10.37;;
21593;SDS011;10959;51.328;7.322;2024-01-06T02:17:16;13.30;;;12.03;;
21593;SDS011;10959;51.328;7.322;2024-01-06T02:19:42;12.57;;;11.37;;
21593;SDS011;10959;51.328;7.322;2024-01-06T02:22:10;13.33;;;11.77;;
21593;SDS011;10959;51.328;7.322;2024-01-06T02:24:36;16.13;;;11.17;;
21593;SDS011;10959;51.328;7.322;2024-01-06T02:27:03;11.97;;;10.80;;
21593;SDS011;10959;51.328;7.322;2024-01-06T02:29:30;11.70;;;10.57;;
21593;SDS011;10959;51.328;7.322;2024-01-06T02:31:56;12.60;;;11.40;;
21593;SDS011;10959;51.328;7.322;2024-01-06T02:34:23;10.10;;;9.10;;
21593;SDS011;10959;51.328;7.322;2024-01-06T02:36:50;11.57;;;10.47;;
21593;SDS011;10959;51.328;7.322;2024-01-06T02:39:18;11.33;;;9.57;;
21593;SDS011;10959;51.328;7.322;2024-01-06T02:41:44;9.80;;;8.90;;
21593;SDS011;10959;51.328;7.322;2024-01-06T02:44:10;11.67;;;10.57;;
21593;SDS011;10959;51.328;7.322;2024-01-06T02:46:39;11.87;;;9.60;;
21593;SDS011;10959;51.328;7.322;2024-01-06T02:49:05;11.60;;;10.23;;
21593;SDS011;10959;51.328;7.322;2024-01-06T02:51:32;11.63;;;10.43;;
21593;SDS011;10959;51.328;7.322;2024-01-06T02:53:58;11.57;;;10.27;;
21593;SDS011;10959;51.328;7.322;2024-01-06T02:56:26;11.27;;;10.17;;
21593;SDS011;10959;51.328;7.322;2024-01-06T02:58:52;9.90;;;9.00;;
21593;SDS011;10959;51.328;7.322;2024-01-06T03:01:18;11.13;;;9.73;;
21593;SDS011;10959;51.328;7.322;2024-01-06T03:03:45;10.80;;;9.40;;
21593;SDS011;10959;51.328;7.322;2024-01-06T03:06:11;10.13;;;9.23;;
21593;SDS011;10959;51.328;7.322;2024-01-06T03:08:38;11.10;;;10.00;;
21593;SDS011;10959;51.328;7.322;2024-01-06T03:11:04;9.80;;;8.90;;
21593;SDS011;10959;51.328;7.322;2024-01-06T03:13:32;10.47;;;9.57;;
21593;SDS011;10959;51.328;7.322;2024-01-06T03:16:01;11.10;;;9.90;;
21593;SDS011;10959;51.328;7.322;2024-01-06T03:18:29;10.77;;;9.67;;
21593;SDS011;10959;51.328;7.322;2024-01-06T03:20:55;9.87;;;8.87;;
21593;SDS011;10959;51.328;7.322;2024-01-06T03:23:22;11.97;;;10.77;;
21593;SDS011;10959;51.328;7.322;2024-01-06T03:25:48;13.17;;;11.87;;
21593;SDS011;10959;51.328;7.322;2024-01-06T03:28:14;11.97;;;10.87;;
21593;SDS011;10959;51.328;7.322;2024-01-06T03:30:42;13.23;;;11.83;;
21593;SDS011;10959;51.328;7.322;2024-01-06T03:33:09;12.13;;;10.93;;
21593;SDS011;10959;51.328;7.322;2024-01-06T03:35:35;11.83;;;10.63;;
21593;SDS011;10959;51.328;7.322;2024-01-06T03:38:01;13.77;;;11.97;;
21593;SDS011;10959;51.328;7.322;2024-01-06T03:40:28;11.77;;;10.57;;
21593;SDS011;10959;51.328;7.322;2024-01-06T03:42:54;11.90;;;10.70;;
21593;SDS011;10959;51.328;7.322;2024-01-06T03:45:21;12.27;;;11.07;;
21593;SDS011;10959;51.328;7.322;2024-01-06T03:47:48;14.97;;;13.47;;
21593;SDS011;10959;51.328;7.322;2024-01-06T03:50:15;14.93;;;12.97;;
21593;SDS011;10959;51.328;7.322;2024-01-06T03:52:41;14.07;;;12.67;;
21593;SDS011;10959;51.328;7.322;2024-01-06T03:55:08;15.87;;;14.17;;
21593;SDS011;10959;51.328;7.322;2024-01-06T03:57:34;19.13;;;15.17;;
21593;SDS011;10959;51.328;7.322;2024-01-06T04:00:01;16.37;;;13.97;;
21593;SDS011;10959;51.328;7.322;2024-01-06T04:02:28;16.80;;;15.10;;
21593;SDS011;10959;51.328;7.322;2024-01-06T04:04:55;17.73;;;15.60;;
21593;SDS011;10959;51.328;7.322;2024-01-06T04:07:22;18.63;;;16.30;;
21593;SDS011;10959;51.328;7.322;2024-01-06T04:09:48;17.17;;;15.37;;
21593;SDS011;10959;51.328;7.322;2024-01-06T04:12:14;21.77;;;17.33;;
21593;SDS011;10959;51.328;7.322;2024-01-06T04:14:41;18.80;;;15.40;;
21593;SDS011;10959;51.328;7.322;2024-01-06T04:17:07;18.37;;;15.77;;
21593;SDS011;10959;51.328;7.322;2024-01-06T04:19:34;18.37;;;16.10;;
21593;SDS011;10959;51.328;7.322;2024-01-06T04:22:02;18.77;;;16.43;;
21593;SDS011;10959;51.328;7.322;2024-01-06T04:24:28;20.37;;;16.43;;
21593;SDS011;10959;51.328;7.322;2024-01-06T04:26:55;22.07;;;17.53;;
21593;SDS011;10959;51.328;7.322;2024-01-06T04:29:21;31.93;;;22.17;;
21593;SDS011;10959;51.328;7.322;2024-01-06T04:31:48;20.83;;;17.73;;
21593;SDS011;10959;51.328;7.322;2024-01-06T04:34:14;23.90;;;19.77;;
21593;SDS011;10959;51.328;7.322;2024-01-06T04:36:41;23.13;;;18.90;;
21593;SDS011;10959;51.328;7.322;2024-01-06T04:39:08;23.47;;;19.97;;
21593;SDS011;10959;51.328;7.322;2024-01-06T04:41:37;27.33;;;21.87;;
21593;SDS011;10959;51.328;7.322;2024-01-06T04:44:04;23.93;;;19.50;;
21593;SDS011;10959;51.328;7.322;2024-01-06T04:46:30;29.30;;;21.63;;
21593;SDS011;10959;51.328;7.322;2024-01-06T04:48:58;26.27;;;19.93;;
21593;SDS011;10959;51.328;7.322;2024-01-06T04:51:24;24.93;;;20.10;;
21593;SDS011;10959;51.328;7.322;2024-01-06T04:53:50;30.17;;;22.87;;
21593;SDS011;10959;51.328;7.322;2024-01-06T04:56:18;22.40;;;18.70;;
21593;SDS011;10959;51.328;7.322;2024-01-06T04:58:45;27.37;;;21.23;;
21593;SDS011;10959;51.328;7.322;2024-01-06T05:01:11;25.63;;;20.83;;
21593;SDS011;10959;51.328;7.322;2024-01-06T05:03:38;30.03;;;22.03;;
21593;SDS011;10959;51.328;7.322;2024-01-06T05:06:04;25.10;;;19.90;;
21593;SDS011;10959;51.328;7.322;2024-01-06T05:08:30;24.67;;;19.93;;
21593;SDS011;10959;51.328;7.322;2024-01-06T05:10:57;22.20;;;18.13;;
21593;SDS011;10959;51.328;7.322;2024-01-06T05:13:25;21.00;;;17.53;;
21593;SDS011;10959;51.328;7.322;2024-01-06T05:15:51;22.07;;;18.13;;
21593;SDS011;10959;51.328;7.322;2024-01-06T05:18:17;19.40;;;16.43;;
21593;SDS011;10959;51.328;7.322;2024-01-06T05:20:44;16.73;;;13.93;;
21593;SDS011;10959;51.328;7.322;2024-01-06T05:23:10;17.43;;;14.03;;
21593;SDS011;10959;51.328;7.322;2024-01-06T05:25:37;14.57;;;13.00;;
21593;SDS011;10959;51.328;7.322;2024-01-06T05:28:03;15.00;;;13.13;;
21593;SDS011;10959;51.328;7.322;2024-01-06T05:30:31;15.77;;;12.93;;
21593;SDS011;10959;51.328;7.322;2024-01-06T05:32:58;14.73;;;12.53;;
21593;SDS011;10959;51.328;7.322;2024-01-06T05:35:24;17.53;;;14.30;;
21593;SDS011;10959;51.328;7.322;2024-01-06T05:37:50;15.97;;;13.80;;
21593;SDS011;10959;51.328;7.322;2024-01-06T05:40:17;15.80;;;12.30;;
21593;SDS011;10959;51.328;7.322;2024-01-06T05:42:43;15.37;;;12.33;;
21593;SDS011;10959;51.328;7.322;2024-01-06T05:45:10;16.30;;;12.63;;
21593;SDS011;10959;51.328;7.322;2024-01-06T05:47:39;15.00;;;12.27;;
21593;SDS011;10959;51.328;7.322;2024-01-06T05:50:06;16.83;;;12.43;;
21593;SDS011;10959;51.328;7.322;2024-01-06T05:52:34;16.70;;;11.83;;
21593;SDS011;10959;51.328;7.322;2024-01-06T05:55:00;17.37;;;12.90;;
21593;SDS011;10959;51.328;7.322;2024-01-06T05:57:27;15.63;;;13.03;;
21593;SDS011;10959;51.328;7.322;2024-01-06T05:59:53;15.10;;;12.07;;
21593;SDS011;10959;51.328;7.322;2024-01-06T06:02:20;14.30;;;11.63;;
21593;SDS011;10959;51.328;7.322;2024-01-06T06:04:47;17.07;;;11.97;;
21593;SDS011;10959;51.328;7.322;2024-01-06T06:07:14;16.07;;;12.50;;
21593;SDS011;10959;51.328;7.322;2024-01-06T06:09:40;16.80;;;12.63;;
21593;SDS011;10959;51.328;7.322;2024-01-06T06:12:07;13.83;;;11.30;;
21593;SDS011;10959;51.328;7.322;2024-01-06T06:14:34;15.53;;;11.90;;
21593;SDS011;10959;51.328;7.322;2024-01-06T06:17:00;14.87;;;11.90;;
21593;SDS011;10959;51.328;7.322;2024-01-06T06:19:27;18.50;;;13.20;;
21593;SDS011;10959;51.328;7.322;2024-01-06T06:21:55;14.80;;;11.90;;
21593;SDS011;10959;51.328;7.322;2024-01-06T06:24:21;17.27;;;12.40;;
21593;SDS011;10959;51.328;7.322;2024-01-06T06:26:47;16.47;;;12.23;;
21593;SDS011;10959;51.328;7.322;2024-01-06T06:29:14;16.73;;;12.27;;
21593;SDS011;10959;51.328;7.322;2024-01-06T06:31:40;17.50;;;13.77;;
21593;SDS011;10959;51.328;7.322;2024-01-06T06:34:08;14.77;;;11.50;;
21593;SDS011;10959;51.328;7.322;2024-01-06T06:36:34;16.30;;;12.07;;
21593;SDS011;10959;51.328;7.322;2024-01-06T06:39:02;14.50;;;11.33;;
21593;SDS011;10959;51.328;7.322;2024-01-06T06:41:29;15.50;;;11.87;;
21593;SDS011;10959;51.328;7.322;2024-01-06T06:43:55;15.67;;;12.20;;
21593;SDS011;10959;51.328;7.322;2024-01-06T06:46:22;15.10;;;11.73;;
21593;SDS011;10959;51.328;7.322;2024-01-06T06:48:49;16.13;;;12.60;;
21593;SDS011;10959;51.328;7.322;2024-01-06T06:51:16;14.90;;;11.40;;
21593;SDS011;10959;51.328;7.322;2024-01-06T06:53:42;15.00;;;11.70;;
21593;SDS011;10959;51.328;7.322;2024-01-06T06:56:10;14.70;;;11.20;;
21593;SDS011;10959;51.328;7.322;2024-01-06T06:58:36;13.77;;;11.10;;
21593;SDS011;10959;51.328;7.322;2024-01-06T07:01:03;16.17;;;11.60;;
21593;SDS011;10959;51.328;7.322;2024-01-06T07:03:30;13.63;;;10.93;;
21593;SDS011;10959;51.328;7.322;2024-01-06T07:05:56;16.40;;;11.87;;
21593;SDS011;10959;51.328;7.322;2024-01-06T07:08:23;13.57;;;10.77;;
21593;SDS011;10959;51.328;7.322;2024-01-06T07:10:49;15.30;;;11.87;;
21593;SDS011;10959;51.328;7.322;2024-01-06T07:13:17;14.60;;;11.30;;
21593;SDS011;10959;51.328;7.322;2024-01-06T07:15:43;16.37;;;11.63;;
21593;SDS011;10959;51.328;7.322;2024-01-06T07:18:10;13.40;;;10.87;;
21593;SDS011;10959;51.328;7.322;2024-01-06T07:20:37;12.83;;;10.63;;
21593;SDS011;10959;51.328;7.322;2024-01-06T07:23:03;18.23;;;13.47;;
21593;SDS011;10959;51.328;7.322;2024-01-06T07:25:29;13.57;;;11.07;;
21593;SDS011;10959;51.328;7.322;2024-01-06T07:27:56;15.07;;;11.80;;
21593;SDS011;10959;51.328;7.322;2024-01-06T07:30:24;14.60;;;11.27;;
21593;SDS011;10959;51.328;7.322;2024-01-06T07:32:50;13.07;;;10.57;;
21593;SDS011;10959;51.328;7.322;2024-01-06T07:35:17;13.40;;;10.13;;
21593;SDS011;10959;51.328;7.322;2024-01-06T07:37:43;12.17;;;10.07;;
21593;SDS011;10959;51.328;7.322;2024-01-06T07:40:10;14.63;;;10.57;;
21593;SDS011;10959;51.328;7.322;2024-01-06T07:42:41;14.23;;;10.43;;
21593;SDS011;10959;51.328;7.322;2024-01-06T07:45:08;14.27;;;11.43;;
21593;SDS011;10959;51.328;7.322;2024-01-06T07:47:36;15.67;;;11.40;;
21593;SDS011;10959;51.328;7.322;2024-01-06T07:50:03;12.73;;;10.67;;
21593;SDS011;10959;51.328;7.322;2024-01-06T07:52:31;13.37;;;10.57;;
21593;SDS011;10959;51.328;7.322;2024-01-06T07:54:57;14.33;;;11.57;;
21593;SDS011;10959;51.328;7.322;2024-01-06T07:57:24;15.23;;;12.00;;
21593;SDS011;10959;51.328;7.322;2024-01-06T07:59:50;12.97;;;10.43;;
21593;SDS011;10959;51.328;7.322;2024-01-06T08:02:17;13.93;;;11.33;;
21593;SDS011;10959;51.328;7.322;2024-01-06T08:04:45;11.63;;;9.53;;
21593;SDS011;10959;51.328;7.322;2024-01-06T08:07:11;14.17;;;10.83;;
21593;SDS011;10959;51.328;7.322;2024-01-06T08:09:38;11.50;;;10.30;;
21593;SDS011;10959;51.328;7.322;2024-01-06T08:12:05;11.67;;;10.37;;
21593;SDS011;10959;51.328;7.322;2024-01-06T08:14:32;11.47;;;9.57;;
21593;SDS011;10959;51.328;7.322;2024-01-06T08:16:58;12.23;;;10.93;;
21593;SDS011;10959;51.328;7.322;2024-01-06T08:19:25;10.50;;;9.40;;
21593;SDS011;10959;51.328;7.322;2024-01-06T08:21:54;12.90;;;10.83;;
21593;SDS011;10959;51.328;7.322;2024-01-06T08:24:21;11.70;;;10.27;;
21593;SDS011;10959;51.328;7.322;2024-01-06T08:26:47;13.53;;;10.80;;
21593;SDS011;10959;51.328;7.322;2024-01-06T08:29:14;13.40;;;11.50;;
21593;SDS011;10959;51.328;7.322;2024-01-06T08:31:41;12.97;;;11.50;;
21593;SDS011;10959;51.328;7.322;2024-01-06T08:34:08;15.47;;;13.57;;
21593;SDS011;10959;51.328;7.322;2024-01-06T08:36:34;14.37;;;11.70;;
21593;SDS011;10959;51.328;7.322;2024-01-06T08:39:02;13.33;;;12.03;;
21593;SDS011;10959;51.328;7.322;2024-01-06T08:41:29;15.03;;;11.87;;
21593;SDS011;10959;51.328;7.322;2024-01-06T08:43:55;13.33;;;11.97;;
21593;SDS011;10959;51.328;7.322;2024-01-06T08:46:22;16.80;;;13.80;;
21593;SDS011;10959;51.328;7.322;2024-01-06T08:48:49;13.47;;;11.80;;
21593;SDS011;10959;51.328;7.322;2024-01-06T08:51:15;15.07;;;13.43;;
21593;SDS011;10959;51.328;7.322;2024-01-06T08:53:41;15.90;;;12.60;;
21593;SDS011;10959;51.328;7.322;2024-01-06T08:56:09;14.63;;;12.30;;
21593;SDS011;10959;51.328;7.322;2024-01-06T08:58:36;19.37;;;15.83;;
21593;SDS011;10959;51.328;7.322;2024-01-06T09:01:02;17.13;;;13.93;;
21593;SDS011;10959;51.328;7.322;2024-01-06T09:03:29;14.97;;;12.73;;
21593;SDS011;10959;51.328;7.322;2024-01-06T09:05:55;17.33;;;13.13;;
21593;SDS011;10959;51.328;7.322;2024-01-06T09:08:22;37.27;;;16.33;;
21593;SDS011;10959;51.328;7.322;2024-01-06T09:10:49;26.20;;;14.87;;
21593;SDS011;10959;51.328;7.322;2024-01-06T09:13:17;30.33;;;16.37;;
21593;SDS011;10959;51.328;7.322;2024-01-06T09:15:46;23.23;;;16.07;;
21593;SDS011;10959;51.328;7.322;2024-01-06T09:18:13;37.20;;;14.93;;
21593;SDS011;10959;51.328;7.322;2024-01-06T09:20:39;28.53;;;15.90;;
21593;SDS011;10959;51.328;7.322;2024-01-06T09:23:06;36.20;;;17.00;;
21593;SDS011;10959;51.328;7.322;2024-01-06T09:25:32;23.67;;;15.87;;
21593;SDS011;10959;51.328;7.322;2024-01-06T09:27:59;20.20;;;15.17;;
21593;SDS011;10959;51.328;7.322;2024-01-06T09:30:27;22.97;;;14.13;;
21593;SDS011;10959;51.328;7.322;2024-01-06T09:32:53;33.40;;;16.33;;
21593;SDS011;10959;51.328;7.322;2024-01-06T09:35:19;31.03;;;16.00;;
21593;SDS011;10959;51.328;7.322;2024-01-06T09:37:46;18.00;;;14.20;;
21593;SDS011;10959;51.328;7.322;2024-01-06T09:40:14;17.83;;;13.07;;
21593;SDS011;10959;51.328;7.322;2024-01-06T09:42:47;21.57;;;14.43;;
21593;SDS011;10959;51.328;7.322;2024-01-06T09:45:14;16.47;;;12.27;;
21593;SDS011;10959;51.328;7.322;2024-01-06T09:47:42;16.67;;;13.00;;
21593;SDS011;10959;51.328;7.322;2024-01-06T09:50:09;18.80;;;13.60;;
21593;SDS011;10959;51.328;7.322;2024-01-06T09:52:37;15.70;;;12.73;;
21593;SDS011;10959;51.328;7.322;2024-01-06T09:55:07;19.97;;;13.73;;
21593;SDS011;10959;51.328;7.322;2024-01-06T09:57:36;20.60;;;14.40;;
21593;SDS011;10959;51.328;7.322;2024-01-06T10:00:03;19.77;;;14.50;;
21593;SDS011;10959;51.328;7.322;2024-01-06T10:02:30;21.27;;;14.63;;
21593;SDS011;10959;51.328;7.322;2024-01-06T10:04:59;23.20;;;14.47;;
21593;SDS011;10959;51.328;7.322;2024-01-06T10:07:25;18.07;;;13.50;;
21593;SDS011;10959;51.328;7.322;2024-01-06T10:09:53;21.97;;;15.70;;
21593;SDS011;10959;51.328;7.322;2024-01-06T10:12:22;21.00;;;14.80;;
21593;SDS011;10959;51.328;7.322;2024-01-06T10:14:49;19.43;;;14.23;;
21593;SDS011;10959;51.328;7.322;2024-01-06T10:17:16;24.97;;;15.17;;
21593;SDS011;10959;51.328;7.322;2024-01-06T10:19:44;24.07;;;15.80;;
21593;SDS011;10959;51.328;7.322;2024-01-06T10:22:12;19.30;;;14.30;;
21593;SDS011;10959;51.328;7.322;2024-01-06T10:24:38;24.73;;;15.67;;
21593;SDS011;10959;51.328;7.322;2024-01-06T10:27:05;21.63;;;14.40;;
21593;SDS011;10959;51.328;7.322;2024-01-06T10:29:34;21.40;;;15.30;;
21593;SDS011;10959;51.328;7.322;2024-01-06T10:32:00;18.70;;;14.17;;
21593;SDS011;10959;51.328;7.322;2024-01-06T10:34:27;20.70;;;13.70;;
21593;SDS011;10959;51.328;7.322;2024-01-06T10:36:57;26.73;;;15.57;;
21593;SDS011;10959;51.328;7.322;2024-01-06T10:39:25;19.73;;;14.00;;
21593;SDS011;10959;51.328;7.322;2024-01-06T10:41:53;17.63;;;13.47;;
21593;SDS011;10959;51.328;7.322;2024-01-06T10:44:21;17.93;;;13.07;;
21593;SDS011;10959;51.328;7.322;2024-01-06T10:46:48;18.27;;;13.40;;
21593;SDS011;10959;51.328;7.322;2024-01-06T10:49:15;18.93;;;12.80;;
21593;SDS011;10959;51.328;7.322;2024-01-06T10:51:44;19.53;;;13.03;;
21593;SDS011;10959;51.328;7.322;2024-01-06T10:54:13;18.20;;;13.60;;
21593;SDS011;10959;51.328;7.322;2024-01-06T10:56:42;19.87;;;13.63;;
21593;SDS011;10959;51.328;7.322;2024-01-06T10:59:10;19.60;;;13.57;;
21593;SDS011;10959;51.328;7.322;2024-01-06T11:01:38;19.60;;;13.50;;
21593;SDS011;10959;51.328;7.322;2024-01-06T11:04:05;17.50;;;14.10;;
21593;SDS011;10959;51.328;7.322;2024-01-06T11:06:32;23.50;;;15.53;;
21593;SDS011;10959;51.328;7.322;2024-01-06T11:09:02;24.67;;;15.93;;
21593;SDS011;10959;51.328;7.322;2024-01-06T11:11:35;23.47;;;14.57;;
21593;SDS011;10959;51.328;7.322;2024-01-06T11:14:18;26.50;;;15.87;;
21593;SDS011;10959;51.328;7.322;2024-01-06T11:16:45;20.47;;;12.87;;
21593;SDS011;10959;51.328;7.322;2024-01-06T11:22:19;20.00;;;10.77;;
21593;SDS011;10959;51.328;7.322;2024-01-06T11:24:52;15.87;;;9.67;;
21593;SDS011;10959;51.328;7.322;2024-01-06T11:27:22;15.70;;;10.90;;
21593;SDS011;10959;51.328;7.322;2024-01-06T11:29:52;14.60;;;10.53;;
21593;SDS011;10959;51.328;7.322;2024-01-06T11:32:20;12.73;;;9.53;;
21593;SDS011;10959;51.328;7.322;2024-01-06T11:34:50;14.87;;;11.53;;
21593;SDS011;10959;51.328;7.322;2024-01-06T11:37:19;13.77;;;9.90;;
21593;SDS011;10959;51.328;7.322;2024-01-06T11:39:49;10.00;;;7.47;;
21593;SDS011;10959;51.328;7.322;2024-01-06T11:42:16;7.83;;;6.20;;
21593;SDS011;10959;51.328;7.322;2024-01-06T11:44:43;8.10;;;6.93;;
21593;SDS011;10959;51.328;7.322;2024-01-06T11:47:12;8.33;;;6.80;;
21593;SDS011;10959;51.328;7.322;2024-01-06T11:49:40;8.73;;;6.90;;
21593;SDS011;10959;51.328;7.322;2024-01-06T11:52:11;9.17;;;6.67;;
21593;SDS011;10959;51.328;7.322;2024-01-06T11:54:38;9.80;;;7.47;;
21593;SDS011;10959;51.328;7.322;2024-01-06T11:57:06;12.07;;;9.63;;
21593;SDS011;10959;51.328;7.322;2024-01-06T11:59:32;25.13;;;12.20;;
21593;SDS011;10959;51.328;7.322;2024-01-06T12:01:59;17.17;;;11.30;;
21593;SDS011;10959;51.328;7.322;2024-01-06T12:04:27;18.93;;;12.77;;
21593;SDS011;10959;51.328;7.322;2024-01-06T12:07:04;22.03;;;12.83;;
21593;SDS011;10959;51.328;7.322;2024-01-06T12:09:31;15.67;;;13.10;;
21593;SDS011;10959;51.328;7.322;2024-01-06T12:12:00;27.33;;;14.10;;
21593;SDS011;10959;51.328;7.322;2024-01-06T12:14:27;27.60;;;14.90;;
21593;SDS011;10959;51.328;7.322;2024-01-06T12:16:54;20.43;;;15.20;;
21593;SDS011;10959;51.328;7.322;2024-01-06T12:19:26;19.20;;;14.77;;
21593;SDS011;10959;51.328;7.322;2024-01-06T12:21:53;17.63;;;14.10;;
21593;SDS011;10959;51.328;7.322;2024-01-06T12:24:20;22.93;;;14.27;;
21593;SDS011;10959;51.328;7.322;2024-01-06T12:26:47;25.07;;;14.97;;
21593;SDS011;10959;51.328;7.322;2024-01-06T12:29:16;17.40;;;14.33;;
21593;SDS011;10959;51.328;7.322;2024-01-06T12:31:43;30.07;;;16.20;;
21593;SDS011;10959;51.328;7.322;2024-01-06T12:34:10;51.83;;;17.60;;
21593;SDS011;10959;51.328;7.322;2024-01-06T12:36:38;17.33;;;14.77;;
21593;SDS011;10959;51.328;7.322;2024-01-06T12:39:06;20.93;;;15.70;;
21593;SDS011;10959;51.328;7.322;2024-01-06T12:41:38;25.67;;;15.03;;
21593;SDS011;10959;51.328;7.322;2024-01-06T12:44:04;44.67;;;17.23;;
21593;SDS011;10959;51.328;7.322;2024-01-06T12:46:32;22.83;;;14.23;;
21593;SDS011;10959;51.328;7.322;2024-01-06T12:48:58;29.80;;;15.97;;
21593;SDS011;10959;51.328;7.322;2024-01-06T12:51:25;42.40;;;17.00;;
21593;SDS011;10959;51.328;7.322;2024-01-06T12:53:53;28.60;;;16.60;;
21593;SDS011;10959;51.328;7.322;2024-01-06T12:56:19;24.57;;;15.83;;
21593;SDS011;10959;51.328;7.322;2024-01-06T12:58:46;21.10;;;14.53;;
21593;SDS011;10959;51.328;7.322;2024-01-06T13:01:12;24.93;;;15.20;;
21593;SDS011;10959;51.328;7.322;2024-01-06T13:03:39;38.40;;;16.87;;
21593;SDS011;10959;51.328;7.322;2024-01-06T13:06:05;23.27;;;15.90;;
21593;SDS011;10959;51.328;7.322;2024-01-06T13:08:32;22.93;;;16.27;;
21593;SDS011;10959;51.328;7.322;2024-01-06T13:11:00;23.00;;;16.17;;
21593;SDS011;10959;51.328;7.322;2024-01-06T13:13:28;17.07;;;13.20;;
21593;SDS011;10959;51.328;7.322;2024-01-06T13:15:56;18.67;;;12.53;;
21593;SDS011;10959;51.328;7.322;2024-01-06T13:18:22;20.37;;;14.50;;
21593;SDS011;10959;51.328;7.322;2024-01-06T13:20:49;15.43;;;12.07;;
21593;SDS011;10959;51.328;7.322;2024-01-06T13:23:15;16.90;;;12.60;;
21593;SDS011;10959;51.328;7.322;2024-01-06T13:25:42;15.57;;;12.33;;
21593;SDS011;10959;51.328;7.322;2024-01-06T13:28:10;15.17;;;12.40;;
21593;SDS011;10959;51.328;7.322;2024-01-06T13:30:37;16.60;;;11.77;;
21593;SDS011;10959;51.328;7.322;2024-01-06T13:33:04;19.00;;;13.40;;
21593;SDS011;10959;51.328;7.322;2024-01-06T13:35:31;19.60;;;13.80;;
21593;SDS011;10959;51.328;7.322;2024-01-06T13:37:57;18.90;;;13.27;;
21593;SDS011;10959;51.328;7.322;2024-01-06T13:40:24;27.93;;;14.77;;
21593;SDS011;10959;51.328;7.322;2024-01-06T13:42:50;18.30;;;14.23;;
21593;SDS011;10959;51.328;7.322;2024-01-06T13:45:18;17.57;;;13.67;;
21593;SDS011;10959;51.328;7.322;2024-01-06T13:47:45;19.83;;;14.80;;
21593;SDS011;10959;51.328;7.322;2024-01-06T13:50:12;17.60;;;13.10;;
21593;SDS011;10959;51.328;7.322;2024-01-06T13:52:39;15.97;;;12.47;;
21593;SDS011;10959;51.328;7.322;2024-01-06T13:55:06;17.27;;;13.20;;
21593;SDS011;10959;51.328;7.322;2024-01-06T13:57:33;18.60;;;13.20;;
21593;SDS011;10959;51.328;7.322;2024-01-06T13:59:59;14.33;;;10.90;;
21593;SDS011;10959;51.328;7.322;2024-01-06T14:02:28;14.27;;;11.07;;
21593;SDS011;10959;51.328;7.322;2024-01-06T14:04:54;15.93;;;11.50;;
21593;SDS011;10959;51.328;7.322;2024-01-06T14:07:21;15.13;;;11.30;;
21593;SDS011;10959;51.328;7.322;2024-01-06T14:09:47;15.97;;;10.50;;
21593;SDS011;10959;51.328;7.322;2024-01-06T14:12:14;15.67;;;10.20;;
21593;SDS011;10959;51.328;7.322;2024-01-06T14:14:40;16.73;;;11.77;;
21593;SDS011;10959;51.328;7.322;2024-01-06T14:17:07;15.90;;;11.87;;
21593;SDS011;10959;51.328;7.322;2024-01-06T14:19:35;16.07;;;10.57;;
21593;SDS011;10959;51.328;7.322;2024-01-06T14:22:01;13.33;;;10.80;;
21593;SDS011;10959;51.328;7.322;2024-01-06T14:24:29;19.73;;;12.73;;